Time;durP1;ratioP1;P1;durP2;ratioP2;P2;SDS_P1;SDS_P2;PMS_P1;PMS_P2;Temp;Humidity;BMP_temperature;BMP_pressure;BME280_temperature;BME280_humidity;BME280_pressure;Samples;Min_cycle;Max_cycle;Signal;HPM_P1;HPM_P2
2023/01/06 00:00:11;;;;;;;5.10;2.08;;;9.40;80.70;;;;;;4974021;28;20022;-78
2023/01/06 00:02:37;;;;;;;3.97;2.35;;;9.50;80.80;;;;;;4974244;28;20023;-78
2023/01/06 00:05:03;;;;;;;3.63;2.63;;;9.50;80.80;;;;;;4974240;28;20033;-78
2023/01/06 00:07:29;;;;;;;3.90;2.55;;;9.50;80.80;;;;;;4991363;28;20049;-78
2023/01/06 00:09:55;;;;;;;4.28;2.58;;;9.50;80.80;;;;;;4975489;28;20038;-78
2023/01/06 00:12:20;;;;;;;3.67;2.80;;;9.50;80.80;;;;;;4973363;28;20041;-75
2023/01/06 00:14:47;;;;;;;4.13;2.67;;;9.40;80.80;;;;;;4974135;28;20079;-76
2023/01/06 00:17:13;;;;;;;6.75;2.60;;;9.40;80.90;;;;;;4974520;28;20080;-78
2023/01/06 00:19:39;;;;;;;5.25;3.00;;;9.40;81.00;;;;;;4974082;28;20184;-78
2023/01/06 00:22:04;;;;;;;4.53;2.65;;;9.40;80.80;;;;;;4974010;28;20113;-77
2023/01/06 00:24:32;;;;;;;4.57;2.50;;;9.40;80.80;;;;;;4974072;28;20038;-76
2023/01/06 00:26:58;;;;;;;5.18;2.50;;;9.50;81.70;;;;;;4973953;28;20121;-77
2023/01/06 00:29:24;;;;;;;4.10;2.67;;;9.40;80.70;;;;;;4973650;28;20103;-75
2023/01/06 00:31:49;;;;;;;5.18;2.83;;;9.40;80.70;;;;;;4973944;28;20475;-78
2023/01/06 00:34:15;;;;;;;2.92;2.17;;;9.40;80.70;;;;;;4975193;28;20038;-78
2023/01/06 00:36:41;;;;;;;4.18;2.28;;;9.40;80.70;;;;;;4976521;28;20149;-78
2023/01/06 00:39:07;;;;;;;3.28;2.28;;;9.40;80.70;;;;;;4973861;28;20510;-75
2023/01/06 00:44:16;;;;;;;3.70;1.83;;;9.40;80.70;;;;;;4991033;28;20033;-76
2023/01/06 00:46:42;;;;;;;4.03;2.15;;;9.40;80.80;;;;;;4973313;28;20034;-77
2023/01/06 00:49:08;;;;;;;3.20;1.70;;;9.40;80.70;;;;;;4990839;28;20026;-77
2023/01/06 00:51:39;;;;;;;2.90;1.83;;;9.40;80.70;;;;;;4974399;28;20050;-77
2023/01/06 00:54:07;;;;;;;3.30;2.00;;;9.40;80.80;;;;;;4991105;28;20035;-77
2023/01/06 00:56:38;;;;;;;3.90;2.00;;;9.40;80.70;;;;;;4976604;28;20027;-76
2023/01/06 00:59:05;;;;;;;2.72;1.85;;;9.40;80.60;;;;;;4976730;28;20027;-76
2023/01/06 01:01:31;;;;;;;3.05;1.70;;;9.40;80.60;;;;;;4976706;28;20122;-77
2023/01/06 01:03:57;;;;;;;4.45;2.38;;;9.40;80.70;;;;;;4976862;28;20026;-77
2023/01/06 01:06:22;;;;;;;5.63;3.13;;;9.40;80.70;;;;;;4976452;28;20371;-76
2023/01/06 01:08:53;;;;;;;5.32;3.13;;;9.40;80.50;;;;;;4976769;28;20041;-78
2023/01/06 01:14:03;;;;;;;5.10;3.00;;;9.40;80.50;;;;;;4994233;28;20037;-78
2023/01/06 01:16:28;;;;;;;5.07;2.67;;;9.40;80.50;;;;;;4977033;28;20026;-78
2023/01/06 01:18:54;;;;;;;4.63;2.80;;;9.30;80.70;;;;;;4976604;28;20033;-78
2023/01/06 01:21:20;;;;;;;5.93;3.25;;;9.30;80.70;;;;;;4994031;28;20031;-79
2023/01/06 01:23:46;;;;;;;5.35;2.67;;;9.30;80.80;;;;;;4976688;28;20114;-78
2023/01/06 01:26:13;;;;;;;4.10;2.70;;;9.30;80.80;;;;;;4976589;28;20504;-78
2023/01/06 01:28:39;;;;;;;3.95;2.78;;;9.30;80.80;;;;;;4982738;28;20052;-77
2023/01/06 01:31:06;;;;;;;5.15;2.47;;;9.30;80.70;;;;;;4976571;28;20471;-78
2023/01/06 01:33:31;;;;;;;4.38;3.10;;;9.20;81.40;;;;;;4976122;28;20030;-78
2023/01/06 01:35:57;;;;;;;5.03;3.30;;;9.20;80.70;;;;;;4976740;28;20022;-78
2023/01/06 01:38:25;;;;;;;4.28;2.58;;;9.20;80.70;;;;;;4994216;28;20023;-78
2023/01/06 01:40:51;;;;;;;6.90;3.38;;;9.10;81.10;;;;;;4976602;28;20087;-78
2023/01/06 01:43:17;;;;;;;3.97;2.92;;;9.00;81.10;;;;;;4976214;28;20027;-78
2023/01/06 01:45:47;;;;;;;4.85;3.10;;;9.00;81.50;;;;;;4976458;28;20125;-78
2023/01/06 01:48:27;;;;;;;8.13;3.05;;;8.90;81.70;;;;;;4976008;28;20134;-78
2023/01/06 01:50:55;;;;;;;5.00;2.40;;;8.90;82.00;;;;;;4976264;28;20047;-78
2023/01/06 01:53:28;;;;;;;4.57;2.88;;;8.90;81.70;;;;;;4976145;28;20034;-77
2023/01/06 01:56:01;;;;;;;5.07;3.03;;;8.90;81.90;;;;;;4979639;28;20088;-78
2023/01/06 01:58:36;;;;;;;5.63;2.75;;;8.80;82.10;;;;;;4976173;28;20022;-78
2023/01/06 02:01:03;;;;;;;4.82;2.33;;;8.80;82.10;;;;;;4976049;28;20030;-78
2023/01/06 02:03:30;;;;;;;5.43;2.78;;;8.80;82.20;;;;;;4976416;28;20133;-78
2023/01/06 02:06:00;;;;;;;4.70;2.63;;;8.80;82.20;;;;;;4992729;28;20026;-77
2023/01/06 02:08:32;;;;;;;5.07;2.40;;;8.70;82.10;;;;;;4976524;28;20043;-76
2023/01/06 02:10:58;;;;;;;3.83;2.40;;;8.70;82.20;;;;;;4976244;28;20033;-76
2023/01/06 02:13:24;;;;;;;4.93;2.58;;;8.70;82.30;;;;;;4975631;28;20022;-76
2023/01/06 02:16:00;;;;;;;4.25;2.60;;;8.70;82.30;;;;;;4975352;28;20022;-77
2023/01/06 02:18:34;;;;;;;;;;;8.60;82.10;;;;;;4959778;28;20030;-77
2023/01/06 02:21:24;;;;;;;4.90;2.40;;;8.50;82.20;;;;;;4991864;28;19997;-76
2023/01/06 02:24:11;;;;;;;4.68;2.58;;;8.50;82.70;;;;;;4975715;28;20015;-76
2023/01/06 02:27:10;;;;;;;4.70;2.55;;;8.40;83.00;;;;;;4975983;28;20497;-79
2023/01/06 02:29:39;;;;;;;5.82;2.88;;;8.30;83.20;;;;;;4975880;28;20026;-75
2023/01/06 02:32:13;;;;;;;3.40;1.90;;;8.30;83.40;;;;;;4975708;28;20117;-75
2023/01/06 02:35:03;;;;;;;3.03;2.20;;;8.20;83.80;;;;;;4975546;28;20479;-75
2023/01/06 02:37:57;;;;;;;3.40;2.25;;;8.20;83.70;;;;;;4975281;28;20033;-76
2023/01/06 02:40:37;;;;;;;2.92;2.38;;;8.10;84.00;;;;;;4975694;28;20467;-77
2023/01/06 02:43:23;;;;;;;4.68;2.60;;;8.10;84.00;;;;;;4975513;28;20027;-77
2023/01/06 02:46:08;;;;;;;3.80;1.83;;;8.10;84.00;;;;;;4962014;28;20432;-76
2023/01/06 02:49:23;;;;;;;4.90;1.93;;;8.00;84.10;;;;;;4975550;28;20041;-75
2023/01/06 02:52:03;;;;;;;3.05;1.92;;;8.00;84.20;;;;;;4968717;28;20046;-75
2023/01/06 02:54:47;;;;;;;2.67;1.70;;;7.90;84.10;;;;;;4975349;28;20026;-75
2023/01/06 02:57:26;;;;;;;3.17;1.85;;;7.90;84.30;;;;;;4992866;28;20041;-76
2023/01/06 03:00:07;;;;;;;2.90;2.22;;;7.80;84.40;;;;;;4975182;28;20034;-77
2023/01/06 03:02:35;;;;;;;3.75;2.20;;;7.90;84.40;;;;;;4975208;28;20476;-77
2023/01/06 03:05:03;;;;;;;3.85;2.40;;;7.80;84.30;;;;;;4975208;28;20022;-74
2023/01/06 03:07:31;;;;;;;4.80;2.35;;;7.70;84.50;;;;;;4959126;28;20191;-77
2023/01/06 03:10:00;;;;;;;5.03;2.05;;;7.70;84.70;;;;;;5048315;28;20392;-78
2023/01/06 03:13:05;;;;;;;3.25;1.92;;;7.70;84.80;;;;;;5056584;28;20093;-79
2023/01/06 03:15:31;;;;;;;3.15;2.00;;;7.70;84.70;;;;;;5056019;28;20089;-78
2023/01/06 03:17:56;;;;;;;5.57;1.95;;;7.70;84.50;;;;;;5055967;28;20537;-76
2023/01/06 03:20:24;;;;;;;2.67;1.75;;;7.60;84.30;;;;;;5056428;28;20032;-77
2023/01/06 03:22:49;;;;;;;3.13;1.65;;;7.60;84.50;;;;;;5056640;28;20024;-77
2023/01/06 03:25:15;;;;;;;2.88;1.75;;;7.60;84.70;;;;;;5056591;28;20044;-76
2023/01/06 03:27:41;;;;;;;2.08;1.40;;;7.60;84.60;;;;;;5056565;28;20719;-76
2023/01/06 03:30:09;;;;;;;5.32;1.80;;;7.60;84.60;;;;;;5056492;28;20039;-76
2023/01/06 03:32:58;;;;;;;4.20;1.65;;;7.50;84.70;;;;;;5056315;28;20024;-76
2023/01/06 03:35:51;;;;;;;3.33;1.50;;;7.50;85.00;;;;;;5055561;28;20033;-76
2023/01/06 03:38:32;;;;;;;3.42;1.65;;;7.50;84.80;;;;;;5056219;28;20125;-76
2023/01/06 03:43:10;;;;;;;2.58;1.85;;;7.40;84.60;;;;;;5056358;28;20376;-76
2023/01/06 03:44:18;;;;;;;2.83;1.48;;;7.40;84.80;;;;;;5073360;28;20060;-75
2023/01/06 03:46:53;;;;;;;13.20;2.58;;;7.40;84.60;;;;;;5055591;28;20067;-76
2023/01/06 03:49:27;;;;;;;2.58;1.30;;;7.30;84.70;;;;;;5040367;28;20086;-75
2023/01/06 03:52:03;;;;;;;2.35;1.52;;;7.30;84.80;;;;;;5056052;28;20044;-76
2023/01/06 03:54:54;;;;;;;4.60;1.48;;;7.10;85.20;;;;;;5055730;28;20436;-76
2023/01/06 03:57:43;;;;;;;3.35;1.40;;;7.20;85.10;;;;;;5055989;28;20059;-75
2023/01/06 04:00:22;;;;;;;3.88;1.73;;;7.10;85.50;;;;;;5055877;28;20082;-77
2023/01/06 04:02:48;;;;;;;3.15;1.70;;;7.10;85.20;;;;;;5055806;28;20036;-74
2023/01/06 04:05:22;;;;;;;2.95;1.80;;;7.00;85.10;;;;;;5055522;28;20033;-75
2023/01/06 04:07:48;;;;;;;3.80;1.80;;;7.00;85.30;;;;;;5039066;28;20047;-75
2023/01/06 04:10:15;;;;;;;4.95;2.20;;;7.00;85.40;;;;;;5055334;28;20419;-76
2023/01/06 04:12:42;;;;;;;2.92;1.70;;;7.00;85.10;;;;;;5055814;28;20024;-75
2023/01/06 04:15:23;;;;;;;3.60;2.30;;;7.00;85.00;;;;;;5055732;28;20028;-77
2023/01/06 04:17:49;;;;;;;3.20;1.98;;;7.00;84.90;;;;;;5054932;28;20079;-74
2023/01/06 04:20:22;;;;;;;2.15;1.70;;;7.00;84.50;;;;;;5055537;28;20020;-77
2023/01/06 04:22:49;;;;;;;1.63;1.30;;;6.90;84.90;;;;;;5054899;28;20021;-77
2023/01/06 04:25:14;;;;;;;4.40;1.58;;;6.90;85.10;;;;;;5055265;28;20024;-76
2023/01/06 04:27:42;;;;;;;2.50;1.52;;;6.90;85.80;;;;;;5054822;28;20187;-76
2023/01/06 04:30:08;;;;;;;2.42;1.40;;;6.90;85.00;;;;;;5055701;28;20032;-76
2023/01/06 04:32:34;;;;;;;1.75;1.42;;;6.80;85.10;;;;;;5073359;28;20029;-75
2023/01/06 04:34:59;;;;;;;1.83;1.35;;;6.80;85.10;;;;;;5073300;28;20031;-76
2023/01/06 04:37:25;;;;;;;2.72;1.40;;;6.70;85.20;;;;;;5055401;28;20473;-76
2023/01/06 04:39:50;;;;;;;3.53;1.75;;;6.70;85.20;;;;;;5055323;28;20028;-76
2023/01/06 04:42:16;;;;;;;3.05;1.50;;;6.70;85.10;;;;;;5054925;28;20027;-76
2023/01/06 04:44:43;;;;;;;2.10;1.35;;;6.70;84.90;;;;;;5038825;28;20036;-76
2023/01/06 04:47:09;;;;;;;2.05;1.60;;;6.60;85.00;;;;;;5054713;28;20029;-76
2023/01/06 04:49:35;;;;;;;6.55;1.77;;;6.50;85.30;;;;;;5055210;28;20025;-75
2023/01/06 04:52:01;;;;;;;1.50;1.35;;;6.40;85.70;;;;;;5054866;28;20082;-75
2023/01/06 04:54:26;;;;;;;4.38;1.50;;;6.40;86.10;;;;;;5055530;28;20120;-77
2023/01/06 04:56:53;;;;;;;3.17;1.38;;;6.40;86.30;;;;;;5055574;28;20056;-75
2023/01/06 04:59:19;;;;;;;3.20;1.80;;;6.30;86.10;;;;;;5056192;28;20025;-74
2023/01/06 05:01:44;;;;;;;4.43;1.30;;;6.30;86.20;;;;;;5056175;28;20112;-75
2023/01/06 05:04:11;;;;;;;1.92;1.27;;;6.30;86.30;;;;;;5055729;28;20029;-75
2023/01/06 05:06:38;;;;;;;5.45;2.05;;;6.20;85.90;;;;;;5056339;28;20024;-76
2023/01/06 05:09:04;;;;;;;7.03;1.70;;;6.20;86.30;;;;;;5040002;28;20088;-75
2023/01/06 05:11:31;;;;;;;1.75;1.20;;;6.20;86.30;;;;;;5056548;28;20031;-75
2023/01/06 05:13:57;;;;;;;1.10;1.00;;;6.20;86.50;;;;;;5063912;28;20033;-75
2023/01/06 05:16:26;;;;;;;2.33;1.35;;;6.20;86.70;;;;;;5055451;28;20032;-75
2023/01/06 05:18:54;;;;;;;2.22;1.65;;;6.20;86.90;;;;;;5054786;28;20052;-76
2023/01/06 05:21:23;;;;;;;1.90;1.30;;;6.20;86.90;;;;;;5054957;28;20025;-76
2023/01/06 05:23:51;;;;;;;2.10;1.40;;;6.20;86.70;;;;;;5054692;28;20020;-75
2023/01/06 05:26:23;;;;;;;4.35;1.83;;;6.20;86.20;;;;;;5054664;28;20115;-75
2023/01/06 05:28:49;;;;;;;2.47;2.03;;;6.20;86.00;;;;;;5054646;28;20127;-74
2023/01/06 05:31:15;;;;;;;4.07;1.63;;;6.20;85.90;;;;;;5054426;28;20480;-74
2023/01/06 05:33:41;;;;;;;2.30;1.77;;;6.20;85.80;;;;;;5054283;28;20024;-74
2023/01/06 05:36:11;;;;;;;4.43;1.80;;;6.20;85.70;;;;;;5072393;28;20531;-76
2023/01/06 05:38:38;;;;;;;1.52;1.20;;;6.20;85.70;;;;;;5054804;28;20428;-77
2023/01/06 05:41:04;;;;;;;3.70;1.65;;;6.20;85.80;;;;;;5040731;28;20029;-77
2023/01/06 05:43:32;;;;;;;1.70;1.50;;;6.20;85.80;;;;;;5058177;28;20032;-77
2023/01/06 05:46:02;;;;;;;1.83;1.50;;;6.20;85.80;;;;;;5076200;28;20024;-78
2023/01/06 05:48:28;;;;;;;1.90;1.25;;;6.20;86.70;;;;;;5075982;28;20028;-76
2023/01/06 05:51:09;;;;;;;1.45;1.13;;;6.10;85.90;;;;;;5058146;28;20025;-77
2023/01/06 05:53:37;;;;;;;2.10;1.52;;;6.00;86.10;;;;;;5040906;28;20178;-77
2023/01/06 05:56:04;;;;;;;1.40;1.30;;;6.00;86.40;;;;;;5063024;28;20060;-77
2023/01/06 05:58:32;;;;;;;4.82;1.60;;;6.00;86.60;;;;;;5058395;28;20025;-77
2023/01/06 06:00:59;;;;;;;2.78;2.38;;;6.00;86.90;;;;;;5075835;28;20389;-75
2023/01/06 06:03:26;;;;;;;4.82;2.72;;;6.10;86.70;;;;;;5057673;28;20024;-77
2023/01/06 06:05:52;;;;;;;3.22;2.30;;;6.10;86.10;;;;;;5057685;28;20033;-76
2023/01/06 06:08:18;;;;;;;2.70;1.80;;;6.10;85.80;;;;;;5057866;28;20480;-74
2023/01/06 06:10:43;;;;;;;3.15;1.70;;;6.10;85.60;;;;;;5057815;28;20123;-74
2023/01/06 06:13:10;;;;;;;2.40;1.73;;;5.90;86.10;;;;;;5059079;28;20028;-75
2023/01/06 06:15:36;;;;;;;5.90;2.25;;;6.00;86.10;;;;;;5058167;28;20146;-77
2023/01/06 06:18:02;;;;;;;2.95;2.30;;;5.90;85.70;;;;;;5075667;28;20025;-80
2023/01/06 06:20:29;;;;;;;3.78;2.30;;;5.90;85.50;;;;;;5075924;28;20108;-77
2023/01/06 06:22:54;;;;;;;5.50;3.03;;;5.90;85.60;;;;;;5041244;28;20112;-77
2023/01/06 06:25:20;;;;;;;5.22;3.50;;;6.00;85.70;;;;;;5058109;28;20052;-77
2023/01/06 06:27:46;;;;;;;4.50;3.10;;;6.00;85.70;;;;;;5057941;28;20036;-76
2023/01/06 06:30:12;;;;;;;6.75;4.00;;;6.00;85.80;;;;;;5057655;28;20091;-77
2023/01/06 06:32:38;;;;;;;5.93;3.30;;;5.90;85.80;;;;;;5057216;28;20032;-77
2023/01/06 06:35:07;;;;;;;4.65;2.78;;;5.90;86.10;;;;;;5040841;28;20533;-77
2023/01/06 06:37:32;;;;;;;3.53;2.13;;;5.90;86.20;;;;;;5057772;28;20024;-76
2023/01/06 06:39:58;;;;;;;3.45;1.98;;;5.90;86.20;;;;;;5057839;28;20027;-77
2023/01/06 06:42:25;;;;;;;2.38;1.70;;;6.00;86.10;;;;;;5057539;28;20542;-77
2023/01/06 06:44:52;;;;;;;2.65;1.50;;;6.00;86.00;;;;;;5057193;28;20031;-77
2023/01/06 06:47:17;;;;;;;5.20;3.13;;;6.00;86.00;;;;;;5075575;28;20058;-79
2023/01/06 06:49:43;;;;;;;6.85;2.22;;;6.10;85.90;;;;;;5040734;28;20438;-80
2023/01/06 06:52:08;;;;;;;2.58;1.60;;;6.10;85.70;;;;;;5062809;28;20056;-76
2023/01/06 06:54:34;;;;;;;4.28;1.90;;;6.10;85.70;;;;;;5061550;28;20024;-78
2023/01/06 06:56:59;;;;;;;4.22;1.65;;;6.10;85.70;;;;;;5056555;28;20025;-78
2023/01/06 06:59:26;;;;;;;3.70;1.50;;;6.20;85.60;;;;;;5056610;28;20362;-77
2023/01/06 07:01:52;;;;;;;2.53;1.48;;;6.20;85.50;;;;;;5056644;28;20111;-75
2023/01/06 07:04:17;;;;;;;5.55;1.98;;;6.20;85.50;;;;;;5056878;28;20418;-74
2023/01/06 07:06:43;;;;;;;3.13;2.17;;;6.20;85.30;;;;;;5056085;28;20044;-74
2023/01/06 07:09:08;;;;;;;2.70;2.15;;;6.20;85.10;;;;;;5058976;28;20023;-76
2023/01/06 07:11:34;;;;;;;6.07;2.67;;;6.20;85.20;;;;;;5081365;28;20016;-77
2023/01/06 07:14:00;;;;;;;3.30;2.75;;;6.20;85.10;;;;;;5077236;28;20025;-76
2023/01/06 07:16:25;;;;;;;2.85;2.25;;;6.20;84.90;;;;;;5076162;28;20052;-76
2023/01/06 07:18:52;;;;;;;2.80;1.70;;;6.30;84.80;;;;;;5069170;28;20032;-76
2023/01/06 07:21:19;;;;;;;1.90;1.60;;;6.20;84.40;;;;;;5056476;28;20423;-76
2023/01/06 07:23:44;;;;;;;2.63;1.75;;;6.20;84.40;;;;;;5056303;28;20024;-75
2023/01/06 07:26:10;;;;;;;4.88;2.28;;;6.20;84.40;;;;;;5056150;28;20081;-76
2023/01/06 07:28:39;;;;;;;2.70;2.20;;;6.10;84.50;;;;;;5039732;28;20484;-76
2023/01/06 07:31:04;;;;;;;3.13;1.92;;;6.20;84.40;;;;;;5056039;28;20509;-77
2023/01/06 07:33:32;;;;;;;2.45;1.60;;;6.20;84.00;;;;;;5055914;28;20123;-78
2023/01/06 07:35:57;;;;;;;3.95;1.95;;;6.30;84.00;;;;;;5056245;28;20392;-76
2023/01/06 07:38:23;;;;;;;2.83;1.75;;;6.20;83.70;;;;;;5056033;28;20027;-77
2023/01/06 07:40:49;;;;;;;2.40;1.58;;;6.30;83.90;;;;;;5056579;28;20051;-75
2023/01/06 07:43:16;;;;;;;3.05;1.80;;;6.30;83.90;;;;;;5072186;28;20473;-76
2023/01/06 07:45:42;;;;;;;3.15;1.75;;;6.30;83.80;;;;;;5055747;28;20029;-76
2023/01/06 07:48:11;;;;;;;4.45;2.10;;;6.40;83.90;;;;;;5061328;28;20469;-78
2023/01/06 07:50:38;;;;;;;3.58;2.42;;;6.50;84.00;;;;;;5055618;28;20523;-76
2023/01/06 07:53:03;;;;;;;3.63;2.83;;;6.50;83.80;;;;;;5073419;28;20526;-77
2023/01/06 07:55:29;;;;;;;4.82;2.85;;;6.50;83.60;;;;;;5055975;28;20119;-76
2023/01/06 07:57:55;;;;;;;4.13;2.35;;;6.50;82.90;;;;;;5055862;28;20420;-76
2023/01/06 08:00:25;;;;;;;3.00;2.42;;;6.60;82.80;;;;;;5055796;28;20035;-76
2023/01/06 08:02:50;;;;;;;4.95;2.55;;;6.60;82.40;;;;;;5055283;28;20028;-76
2023/01/06 08:05:16;;;;;;;5.03;2.85;;;6.60;82.10;;;;;;5055630;28;20032;-78
2023/01/06 08:07:41;;;;;;;4.45;3.00;;;6.60;82.10;;;;;;5073255;28;20047;-77
2023/01/06 08:10:07;;;;;;;23.85;4.30;;;6.60;82.00;;;;;;5055257;28;20028;-77
2023/01/06 08:12:33;;;;;;;5.13;2.80;;;7.10;94.10;;;;;;5054453;28;20032;-76
2023/01/06 08:15:00;;;;;;;6.18;2.83;;;7.70;96.00;;;;;;5072557;28;20103;-80
2023/01/06 08:17:26;;;;;;;4.70;2.40;;;8.00;92.80;;;;;;5055424;28;20477;-75
2023/01/06 08:19:51;;;;;;;7.13;3.42;;;8.20;88.30;;;;;;5055981;28;20028;-78
2023/01/06 08:22:17;;;;;;;13.63;8.05;;;8.60;83.10;;;;;;5055764;28;20027;-77
2023/01/06 08:24:42;;;;;;;11.73;5.78;;;8.90;79.70;;;;;;5055597;28;20017;-77
2023/01/06 08:27:08;;;;;;;6.45;4.10;;;9.30;76.30;;;;;;5015172;28;20060;-78
2023/01/06 08:29:35;;;;;;;5.30;3.17;;;9.80;73.70;;;;;;4954544;28;20149;-79
2023/01/06 08:32:01;;;;;;;4.80;3.13;;;10.10;72.70;;;;;;4954212;28;20471;-80
2023/01/06 08:34:28;;;;;;;4.43;2.90;;;10.40;70.10;;;;;;4938267;28;20234;-77
2023/01/06 08:36:53;;;;;;;4.15;2.72;;;10.40;69.70;;;;;;4953801;28;20114;-79
2023/01/06 08:39:19;;;;;;;6.15;3.20;;;10.50;69.30;;;;;;4938029;28;20074;-77
2023/01/06 08:41:46;;;;;;;4.45;2.88;;;10.60;69.60;;;;;;4953895;28;20019;-76
2023/01/06 08:44:13;;;;;;;4.25;2.30;;;10.50;68.30;;;;;;4954013;28;20034;-76
2023/01/06 08:46:38;;;;;;;8.85;3.85;;;10.10;68.80;;;;;;4953554;28;20030;-76
2023/01/06 08:49:04;;;;;;;7.72;4.57;;;9.90;70.20;;;;;;4954040;28;20168;-75
2023/01/06 08:51:31;;;;;;;5.07;2.70;;;9.60;71.40;;;;;;4970842;28;20395;-75
2023/01/06 08:54:06;;;;;;;5.15;2.88;;;9.40;72.50;;;;;;4953869;28;20126;-75
2023/01/06 08:56:32;;;;;;;3.17;2.25;;;9.20;74.30;;;;;;4954021;28;20037;-75
2023/01/06 08:59:03;;;;;;;4.55;2.83;;;9.10;74.80;;;;;;4954241;28;20027;-77
2023/01/06 09:01:35;;;;;;;7.28;3.63;;;8.90;75.10;;;;;;4938114;28;20027;-75
2023/01/06 09:04:04;;;;;;;3.70;2.58;;;8.90;75.70;;;;;;4953500;28;20027;-75
2023/01/06 09:06:32;;;;;;;4.80;2.78;;;8.90;76.00;;;;;;4938128;28;20031;-77
2023/01/06 09:08:58;;;;;;;4.30;3.30;;;8.90;76.20;;;;;;4954055;28;20035;-75
2023/01/06 09:11:24;;;;;;;7.45;3.58;;;8.90;76.50;;;;;;4953893;28;20106;-74
2023/01/06 09:13:50;;;;;;;4.35;3.15;;;8.90;76.70;;;;;;4954071;28;20033;-75
2023/01/06 09:16:16;;;;;;;4.80;2.67;;;8.90;77.20;;;;;;4941143;28;20035;-75
2023/01/06 09:18:49;;;;;;;6.88;3.03;;;8.90;77.00;;;;;;4957125;28;20429;-76
2023/01/06 09:21:22;;;;;;;4.53;3.00;;;9.00;77.20;;;;;;4956960;28;20060;-76
2023/01/06 09:23:49;;;;;;;6.72;3.50;;;9.00;77.40;;;;;;4957119;28;20023;-75
2023/01/06 09:26:16;;;;;;;6.15;3.97;;;9.00;78.10;;;;;;4958821;28;20081;-77
2023/01/06 09:28:42;;;;;;;3.78;2.60;;;9.00;78.20;;;;;;4956888;28;20395;-76
2023/01/06 09:31:10;;;;;;;4.63;2.50;;;9.10;78.30;;;;;;4974584;28;20030;-76
2023/01/06 09:33:36;;;;;;;3.85;2.30;;;9.10;78.80;;;;;;4956858;28;20057;-77
2023/01/06 09:36:05;;;;;;;4.63;2.70;;;9.10;79.20;;;;;;4956597;28;20109;-75
2023/01/06 09:38:31;;;;;;;3.42;2.25;;;9.10;79.70;;;;;;4957197;28;20030;-77
2023/01/06 09:41:32;;;;;;;2.70;1.38;;;9.20;79.90;;;;;;4957261;28;20402;-77
2023/01/06 09:44:08;;;;;;;2.45;1.40;;;9.10;80.90;;;;;;4957240;28;20027;-76
2023/01/06 09:46:39;;;;;;;1.48;1.00;;;9.10;80.80;;;;;;4957098;28;20038;-86
2023/01/06 09:49:20;;;;;;;0.73;0.73;;;9.10;80.90;;;;;;4958139;28;20046;-76
2023/01/06 09:51:45;;;;;;;2.63;0.90;;;9.20;81.10;;;;;;4960387;28;20384;-75
2023/01/06 09:54:22;;;;;;;2.00;0.95;;;9.10;81.50;;;;;;4963907;28;20259;-76
2023/01/06 09:56:58;;;;;;;1.13;0.75;;;9.10;81.40;;;;;;4979334;28;20042;-75
2023/01/06 09:59:50;;;;;;;2.78;1.00;;;9.20;81.60;;;;;;4974710;28;20027;-76
2023/01/06 10:02:29;;;;;;;2.47;1.17;;;9.20;81.90;;;;;;4975247;28;20047;-76
2023/01/06 10:04:54;;;;;;;1.30;1.08;;;9.20;81.80;;;;;;4956426;28;20096;-76
2023/01/06 10:07:24;;;;;;;2.00;1.48;;;9.20;82.40;;;;;;4940292;28;20488;-77
2023/01/06 10:10:04;;;;;;;2.22;1.48;;;9.20;82.50;;;;;;4956149;28;20475;-77
2023/01/06 10:12:51;;;;;;;1.40;1.27;;;9.10;83.90;;;;;;4956332;28;20035;-76
2023/01/06 10:15:43;;;;;;;2.55;1.10;;;9.10;83.90;;;;;;4955973;28;20051;-77
2023/01/06 10:18:28;;;;;;;2.30;1.92;;;9.10;84.30;;;;;;4956276;28;20019;-84
2023/01/06 10:21:21;;;;;;;3.75;2.20;;;9.00;85.70;;;;;;4955873;28;20030;-76
2023/01/06 10:24:01;;;;;;;3.83;2.10;;;9.00;85.80;;;;;;4955925;28;20023;-77
2023/01/06 10:26:44;;;;;;;3.42;1.80;;;8.90;86.20;;;;;;4956894;28;20108;-77
2023/01/06 10:29:16;;;;;;;5.03;1.90;;;9.00;86.10;;;;;;4940217;28;20046;-77
2023/01/06 10:31:47;;;;;;;2.20;1.92;;;9.00;86.20;;;;;;4955631;28;20058;-81
2023/01/06 10:34:20;;;;;;;2.13;1.73;;;9.00;86.20;;;;;;4955654;28;20026;-76
2023/01/06 10:36:58;;;;;;;2.40;1.80;;;9.10;85.70;;;;;;4956253;28;20085;-77
2023/01/06 10:39:28;;;;;;;2.78;1.80;;;9.20;86.50;;;;;;4940662;28;20027;-76
2023/01/06 10:45:18;;;;;;;3.63;1.60;;;9.30;85.60;;;;;;4973902;28;20042;-84
2023/01/06 10:47:45;;;;;;;1.98;1.40;;;9.30;86.00;;;;;;4954600;28;20055;-83
2023/01/06 10:50:17;;;;;;;3.55;1.50;;;9.30;85.90;;;;;;4955579;28;20027;-83
2023/01/06 10:52:44;;;;;;;3.25;1.48;;;9.20;85.80;;;;;;4952454;28;20051;-83
2023/01/06 10:55:37;;;;;;;2.75;1.08;;;9.20;86.20;;;;;;4952244;28;20027;-77
2023/01/06 10:58:41;;;;;;;2.25;1.38;;;9.20;86.10;;;;;;4959303;28;20039;-77
2023/01/06 11:01:09;;;;;;;3.80;1.55;;;9.20;86.20;;;;;;4936656;28;20039;-77
2023/01/06 11:03:36;;;;;;;5.60;2.05;;;9.20;86.30;;;;;;4936286;28;20491;-77
2023/01/06 11:06:29;;;;;;;4.70;2.08;;;9.20;86.10;;;;;;4952131;28;20237;-79
2023/01/06 11:08:55;;;;;;;4.68;2.55;;;9.30;86.00;;;;;;4952088;29;20034;-77
2023/01/06 11:11:23;;;;;;;3.25;2.22;;;9.40;86.20;;;;;;4952109;28;20059;-78
2023/01/06 11:13:52;;;;;;;5.15;2.47;;;9.50;85.50;;;;;;4952244;28;20062;-77
2023/01/06 11:16:24;;;;;;;6.13;3.53;;;9.60;84.80;;;;;;4936762;28;20492;-78
2023/01/06 11:18:53;;;;;;;3.97;2.20;;;9.70;84.60;;;;;;4952216;28;20059;-78
2023/01/06 11:21:19;;;;;;;3.53;1.83;;;9.90;84.40;;;;;;4952396;28;20061;-80
2023/01/06 11:23:50;;;;;;;2.97;1.60;;;10.10;83.30;;;;;;4952203;28;20023;-78
2023/01/06 11:26:22;;;;;;;2.15;1.33;;;10.30;83.90;;;;;;4952187;28;20098;-78
2023/01/06 11:28:52;;;;;;;2.55;1.67;;;10.70;82.20;;;;;;4951807;28;20027;-80
2023/01/06 11:31:24;;;;;;;3.70;1.55;;;11.10;81.00;;;;;;4952183;28;20023;-81
2023/01/06 11:33:54;;;;;;;2.55;1.35;;;11.40;79.70;;;;;;4955610;28;20076;-78
2023/01/06 11:36:23;;;;;;;1.60;1.23;;;11.60;78.30;;;;;;4951968;28;20062;-78
2023/01/06 11:39:00;;;;;;;1.42;1.05;;;11.70;77.40;;;;;;4950694;28;20531;-81
2023/01/06 11:41:36;;;;;;;1.77;1.20;;;11.60;75.60;;;;;;4951969;28;20104;-82
2023/01/06 11:44:34;;;;;;;1.30;0.77;;;11.60;74.50;;;;;;4952155;28;20511;-77
2023/01/06 11:47:07;;;;;;;0.55;0.45;;;11.40;73.80;;;;;;4952591;28;20032;-78
2023/01/06 11:49:45;;;;;;;0.43;0.08;;;11.20;73.80;;;;;;4954279;28;20384;-80
2023/01/06 11:52:47;;;;;;;0.55;0.15;;;11.20;71.80;;;;;;4969412;28;20071;-80
2023/01/06 11:55:26;;;;;;;0.43;0.17;;;11.20;72.60;;;;;;4978547;28;20053;-84
2023/01/06 11:58:41;;;;;;;0.10;0.00;;;11.50;71.30;;;;;;4955218;28;20053;-83
2023/01/06 12:01:19;;;;;;;0.20;0.10;;;12.10;70.20;;;;;;4954922;28;20498;-81
2023/01/06 12:03:53;;;;;;;0.10;0.10;;;12.80;65.50;;;;;;4939690;28;20031;-85
2023/01/06 12:07:19;;;;;;;0.20;0.20;;;13.00;63.90;;;;;;4952946;28;20066;-79
2023/01/06 12:09:50;;;;;;;0.45;0.28;;;12.80;64.70;;;;;;4979257;28;20035;-82
2023/01/06 12:12:44;;;;;;;0.25;0.17;;;12.30;65.50;;;;;;4939151;28;20027;-80
2023/01/06 12:15:21;;;;;;;0.50;0.32;;;11.80;67.60;;;;;;4955564;28;20089;-83
2023/01/06 12:18:10;;;;;;;0.10;0.10;;;11.70;68.80;;;;;;4941009;28;20479;-81
2023/01/06 12:20:59;;;;;;;0.35;0.10;;;11.60;68.40;;;;;;4971968;28;20034;-85
2023/01/06 12:23:49;;;;;;;1.45;0.30;;;11.30;68.40;;;;;;4997368;28;20043;-84
2023/01/06 12:26:23;;;;;;;0.40;0.20;;;11.30;69.00;;;;;;4939170;28;20073;-77
2023/01/06 12:29:14;;;;;;;0.47;0.20;;;11.20;68.50;;;;;;4954521;28;20026;-79
2023/01/06 12:32:09;;;;;;;0.20;0.20;;;11.00;69.30;;;;;;4954307;28;20506;-76
2023/01/06 12:35:04;;;;;;;0.00;0.00;;;10.90;70.30;;;;;;4959066;28;20119;-79
2023/01/06 12:37:53;;;;;;;0.10;0.10;;;10.90;70.70;;;;;;4957272;28;20092;-78
2023/01/06 12:40:43;;;;;;;1.13;0.40;;;11.90;67.10;;;;;;4971879;28;20118;-78
2023/01/06 12:43:24;;;;;;;0.30;0.10;;;13.30;62.00;;;;;;4954805;28;20042;-81
2023/01/06 12:46:11;;;;;;;0.30;0.30;;;13.10;61.00;;;;;;4938835;28;20027;-81
2023/01/06 12:49:01;;;;;;;0.10;0.10;;;13.10;61.40;;;;;;4955922;28;20038;-81
2023/01/06 12:52:20;;;;;;;0.10;0.10;;;13.00;60.40;;;;;;4942292;29;20051;-79
2023/01/06 12:54:55;;;;;;;0.20;0.20;;;12.20;62.40;;;;;;5045027;28;20033;-82
2023/01/06 12:57:38;;;;;;;0.20;0.20;;;12.20;64.20;;;;;;5057271;28;20029;-80
2023/01/06 13:00:12;;;;;;;1.98;0.75;;;12.50;63.40;;;;;;5059805;28;20029;-78
2023/01/06 13:02:44;;;;;;;1.75;0.10;;;12.70;65.50;;;;;;5058056;28;20021;-76
2023/01/06 13:05:24;;;;;;;0.15;0.15;;;13.10;60.10;;;;;;5058744;28;20025;-77
2023/01/06 13:08:18;;;;;;;0.30;0.20;;;13.40;59.40;;;;;;5059772;28;20401;-75
2023/01/06 13:11:25;;;;;;;0.50;0.40;;;13.70;59.00;;;;;;5059415;28;20033;-77
2023/01/06 13:14:28;;;;;;;0.40;0.40;;;14.00;56.60;;;;;;5064345;28;20025;-75
2023/01/06 13:17:29;;;;;;;0.43;0.40;;;14.10;55.00;;;;;;5080071;28;20041;-74
2023/01/06 13:20:01;;;;;;;1.45;0.30;;;15.10;55.50;;;;;;5073125;28;20075;-75
2023/01/06 13:22:48;;;;;;;0.80;0.70;;;15.80;49.40;;;;;;5060852;28;20041;-76
2023/01/06 13:25:38;;;;;;;0.30;0.30;;;15.50;50.10;;;;;;5069635;28;20041;-75
2023/01/06 13:28:48;;;;;;;0.30;0.30;;;15.30;49.80;;;;;;5065767;28;20094;-75
2023/01/06 13:31:32;;;;;;;0.57;0.20;;;15.30;51.40;;;;;;5057984;28;20029;-76